メインページ
METAR-TAF:

METAR-TAF

空港 :

マスジェデ・ソレイマーン, イラン

緯度: 31-59N, 経度: 049-16E, 海抜: 372m

現時点の気象観測

当レポートは1時間19分前の17:00(UTC)に作成
北/北西の風 2kt
気温 13°C
湿度 100%
気圧 1017 hPa
視程: 5000m
高度3500ftの雲はほとんどない, 積乱雲.
高度4000ftの雲は散在している
高度7000ftの曇り

METAR: OIAI 171700Z 34002KT 5000 RA FEW035CB SCT040 OVC070 13/13 Q1017

時間: 21:49 (18:19 UTC)


TAF: 見つかりません

4,000以上の空港の気象観測と天気予報(METAR報とTAF報)

利用可能な観測所は地図上に黄色い丸と赤い丸で示す。

丸の上にカーソルを重ねると観測所名を参照できる。

次にクリックすると気象観測と天気予報を参照できる。

マップの切り替え:黒色「×」印の緑ボタンをクリックして拡大、「-」印の緑ボタンをクリックして縮小、緑色の三角印をクリックして隣りの地図に切り替え


METAR-TAF: